Time;durP1;ratioP1;P1;durP2;ratioP2;P2;SDS_P1;SDS_P2;PMS_P1;PMS_P2;Temp;Humidity;BMP_temperature;BMP_pressure;BME280_temperature;BME280_humidity;BME280_pressure;Samples;Min_cycle;Max_cycle;Signal;HPM_P1;HPM_P2
2022/12/04 00:01:46;;;;;;;99.68;59.20;;;;;;;-0.74;100.00;160382.28;5037824;28;20044;-62
2022/12/04 00:04:12;;;;;;;104.50;55.97;;;;;;;-0.72;100.00;160387.63;5031745;28;20029;-62
2022/12/04 00:06:37;;;;;;;99.93;59.53;;;;;;;-0.76;100.00;160376.91;5030430;28;20694;-62
2022/12/04 00:09:04;;;;;;;111.82;56.78;;;;;;;-0.75;100.00;160379.59;5039431;28;20025;-62
2022/12/04 00:11:30;;;;;;;99.38;57.88;;;;;;;-0.80;100.00;160367.53;5050441;28;20430;-62
2022/12/04 00:13:57;;;;;;;111.55;64.57;;;;;;;-0.70;100.00;160392.97;5050462;28;20032;-62
2022/12/04 00:16:24;;;;;;;102.15;57.95;;;;;;;-0.76;100.00;160376.91;5044849;28;20037;-62
2022/12/04 00:18:50;;;;;;;98.15;54.67;;;;;;;-0.81;100.00;160364.84;5031703;28;20034;-62
2022/12/04 00:21:17;;;;;;;100.30;57.22;;;;;;;-0.75;100.00;160379.59;5030121;28;20487;-62
2022/12/04 00:23:43;;;;;;;95.60;55.20;;;;;;;-0.73;100.00;160384.94;5031740;28;20033;-62
2022/12/04 00:26:11;;;;;;;99.18;55.50;;;;;;;-0.69;100.00;160395.66;5029874;28;20405;-62
2022/12/04 00:28:37;;;;;;;97.95;56.17;;;;;;;-0.70;100.00;160392.97;5029755;28;20021;-62
2022/12/04 00:31:08;;;;;;;102.80;60.15;;;;;;;-0.74;100.00;160382.28;5048857;28;20100;-62
2022/12/04 00:33:33;;;;;;;105.57;57.33;;;;;;;-0.73;100.00;160383.59;5050918;28;20072;-62
2022/12/04 00:36:00;;;;;;;102.50;58.75;;;;;;;-0.74;100.00;160382.28;5048489;28;20029;-62
2022/12/04 00:38:26;;;;;;;96.85;56.80;;;;;;;-0.70;100.00;160392.97;5032853;28;20022;-62
2022/12/04 00:40:52;;;;;;;99.90;57.22;;;;;;;-0.66;100.00;160403.69;5048674;28;20033;-62
2022/12/04 00:43:18;;;;;;;104.65;58.10;;;;;;;-0.72;100.00;160386.28;5047030;28;20044;-62
2022/12/04 00:45:44;;;;;;;114.40;57.78;;;;;;;-0.71;100.00;160390.28;5029773;28;20477;-60
2022/12/04 00:48:09;;;;;;;106.65;58.58;;;;;;;-0.77;100.00;160374.22;5049973;28;20040;-62
2022/12/04 00:50:35;;;;;;;96.38;56.95;;;;;;;-0.75;100.00;160379.59;5050067;28;20476;-62
2022/12/04 00:53:01;;;;;;;94.75;55.83;;;;;;;-0.74;100.00;160382.28;5049167;28;20040;-61
2022/12/04 00:55:26;;;;;;;103.18;57.38;;;;;;;-0.71;100.00;160390.28;5051074;28;20116;-61
2022/12/04 00:57:51;;;;;;;100.50;56.72;;;;;;;-0.72;100.00;160387.63;5048936;28;20389;-61
2022/12/04 01:00:17;;;;;;;104.05;57.45;;;;;;;-0.69;100.00;160395.66;5047115;28;20075;-61
2022/12/04 01:02:43;;;;;;;93.95;58.47;;;;;;;-0.71;100.00;160390.28;5029588;28;20041;-61
2022/12/04 01:05:09;;;;;;;97.25;54.17;;;;;;;-0.73;100.00;160384.94;5030223;28;20123;-61
2022/12/04 01:07:34;;;;;;;101.82;56.40;;;;;;;-0.68;100.00;160397.00;5029565;28;20053;-61
2022/12/04 01:09:59;;;;;;;91.00;54.10;;;;;;;-0.73;100.00;160384.94;5030733;28;20415;-61
2022/12/04 01:12:25;;;;;;;99.03;58.42;;;;;;;-0.70;100.00;160392.97;5029067;28;20052;-61
2022/12/04 01:14:50;;;;;;;101.47;57.33;;;;;;;-0.73;100.00;160383.59;5030747;28;20026;-61
2022/12/04 01:17:16;;;;;;;96.20;55.90;;;;;;;-0.70;100.00;160392.97;5029433;28;20041;-61
2022/12/04 01:19:41;;;;;;;102.25;59.08;;;;;;;-0.68;100.00;160398.34;5030394;28;20396;-62
2022/12/04 01:22:06;;;;;;;88.97;55.28;;;;;;;-0.71;100.00;160390.28;5029232;28;20257;-62
2022/12/04 01:24:32;;;;;;;104.63;59.53;;;;;;;-0.67;100.00;160401.03;5030633;28;20465;-62
2022/12/04 01:26:57;;;;;;;106.07;56.67;;;;;;;-0.72;100.00;160387.63;5028858;28;20056;-62
2022/12/04 01:29:22;;;;;;;106.05;58.67;;;;;;;-0.68;100.00;160398.34;5037397;28;20029;-61
2022/12/04 01:31:48;;;;;;;102.95;60.35;;;;;;;-0.70;100.00;160392.97;5048408;28;20147;-61
2022/12/04 01:34:13;;;;;;;97.25;57.60;;;;;;;-0.75;100.00;160379.59;5049590;28;20033;-61
2022/12/04 01:36:38;;;;;;;98.72;55.95;;;;;;;-0.76;100.00;160376.91;5048437;28;20061;-61
2022/12/04 01:39:04;;;;;;;101.70;58.40;;;;;;;-0.70;100.00;160392.97;5045999;28;20026;-61
2022/12/04 01:41:31;;;;;;;111.90;62.00;;;;;;;-0.77;100.00;160372.88;5029018;28;20067;-62
2022/12/04 01:44:11;;;;;;;98.78;55.72;;;;;;;-0.71;100.00;160390.28;5030305;28;20089;-63
2022/12/04 01:46:38;;;;;;;108.35;60.17;;;;;;;-0.78;100.00;160370.22;5038712;28;20047;-63
2022/12/04 01:49:07;;;;;;;91.10;58.83;;;;;;;-0.76;100.00;160376.91;5049771;28;20041;-63
2022/12/04 01:51:37;;;;;;;109.82;58.15;;;;;;;-0.72;100.00;160387.63;5033200;28;20042;-63
2022/12/04 01:54:16;;;;;;;100.15;60.00;;;;;;;-0.72;100.00;160387.63;5036591;28;20021;-63
2022/12/04 01:56:53;;;;;;;95.95;57.17;;;;;;;-0.72;100.00;160387.63;5052691;28;20125;-63
2022/12/04 01:59:22;;;;;;;91.53;55.95;;;;;;;-0.76;100.00;160376.91;5053793;28;20122;-63
2022/12/04 02:02:09;;;;;;;99.13;60.38;;;;;;;-0.73;100.00;160384.94;5051872;28;20528;-63
2022/12/04 02:04:35;;;;;;;108.32;61.08;;;;;;;-0.73;100.00;160384.94;5053749;28;20036;-63
2022/12/04 02:07:00;;;;;;;100.07;55.25;;;;;;;-0.77;100.00;160374.22;5052520;28;20037;-63
2022/12/04 02:09:27;;;;;;;101.78;57.47;;;;;;;-0.77;100.00;160374.22;5052972;28;20033;-62
2022/12/04 02:12:13;;;;;;;98.10;57.22;;;;;;;-0.77;100.00;160374.22;5051780;28;20044;-62
2022/12/04 02:15:12;;;;;;;103.30;60.78;;;;;;;-0.72;100.00;160387.63;5052831;28;20040;-62
2022/12/04 02:18:01;;;;;;;97.65;55.80;;;;;;;-0.87;100.00;160347.47;5037302;28;20041;-62
2022/12/04 02:20:40;;;;;;;97.97;56.17;;;;;;;-0.75;100.00;160378.25;5034170;28;20531;-62
2022/12/04 02:23:30;;;;;;;96.13;52.03;;;;;;;-0.75;100.00;160379.59;5032452;28;20033;-62
2022/12/04 02:26:27;;;;;;;99.13;56.22;;;;;;;-0.75;100.00;160379.59;5033047;28;20040;-62
2022/12/04 02:29:05;;;;;;;109.00;59.63;;;;;;;-0.74;100.00;160382.28;5028523;28;20104;-62
2022/12/04 02:31:37;;;;;;;104.97;59.55;;;;;;;-0.79;100.00;160368.88;5032466;28;20075;-63
2022/12/04 02:34:08;;;;;;;104.47;60.10;;;;;;;-0.75;100.00;160379.59;5033268;28;20029;-64
2022/12/04 02:36:46;;;;;;;99.03;57.58;;;;;;;-0.74;100.00;160382.28;5032383;28;20037;-64
2022/12/04 02:39:30;;;;;;;116.60;59.67;;;;;;;-0.72;100.00;160387.63;5033447;28;20395;-64
2022/12/04 02:42:02;;;;;;;107.53;59.15;;;;;;;-0.77;100.00;160374.22;5031760;28;20052;-64
2022/12/04 02:44:36;;;;;;;108.15;57.58;;;;;;;-0.69;100.00;160395.66;5053293;28;20045;-64
2022/12/04 02:47:08;;;;;;;89.50;55.75;;;;;;;-0.69;100.00;160394.31;5024061;28;20041;-64
2022/12/04 02:49:40;;;;;;;107.03;57.03;;;;;;;-0.72;100.00;160386.28;5033586;28;20025;-64
2022/12/04 02:52:10;;;;;;;123.70;62.75;;;;;;;-0.77;100.00;160374.22;5032116;28;20044;-64
2022/12/04 02:54:41;;;;;;;94.43;55.30;;;;;;;-0.77;100.00;160374.22;5015091;28;20120;-64
2022/12/04 02:57:13;;;;;;;107.45;61.25;;;;;;;-0.81;100.00;160363.53;5031740;28;20091;-64
2022/12/04 02:59:41;;;;;;;102.20;55.78;;;;;;;-0.79;100.00;160368.88;5040194;28;20032;-64
2022/12/04 03:02:15;;;;;;;93.28;58.20;;;;;;;-0.77;100.00;160374.22;5051060;28;20048;-63
2022/12/04 03:04:41;;;;;;;93.85;57.03;;;;;;;-0.84;100.00;160355.47;5052422;28;20078;-62
2022/12/04 03:07:17;;;;;;;91.82;55.10;;;;;;;-0.74;100.00;160382.28;5051363;28;20400;-62
2022/12/04 03:10:00;;;;;;;96.75;58.15;;;;;;;-0.75;100.00;160379.59;5052072;28;20029;-61
2022/12/04 03:12:36;;;;;;;93.43;54.67;;;;;;;-0.76;100.00;160376.91;5051469;28;20064;-61
2022/12/04 03:15:07;;;;;;;96.88;54.70;;;;;;;-0.71;100.00;160390.28;5051963;28;20031;-61
2022/12/04 03:17:40;;;;;;;96.40;55.45;;;;;;;-0.72;100.00;160387.63;5050953;28;20037;-61
2022/12/04 03:20:11;;;;;;;93.90;57.15;;;;;;;-0.74;100.00;160382.28;5042546;28;20128;-61
2022/12/04 03:22:39;;;;;;;95.63;57.50;;;;;;;-0.71;100.00;160390.28;5031564;28;20056;-61
2022/12/04 03:25:06;;;;;;;66.85;45.38;;;;;;;-0.72;100.00;160387.63;5032302;28;20449;-61
2022/12/04 03:27:40;;;;;;;101.20;57.75;;;;;;;-0.73;100.00;160384.94;5013456;28;20408;-60
2022/12/04 03:30:14;;;;;;;102.18;55.67;;;;;;;-0.68;100.00;160398.34;5033112;28;20029;-61
2022/12/04 03:32:59;;;;;;;100.72;53.92;;;;;;;-0.68;100.00;160398.34;5030882;28;20048;-60
2022/12/04 03:35:31;;;;;;;94.88;56.35;;;;;;;-0.66;100.00;160403.69;5032766;28;20029;-61
2022/12/04 03:38:21;;;;;;;99.10;59.25;;;;;;;-0.72;100.00;160387.63;5030889;28;20048;-61
2022/12/04 03:41:00;;;;;;;83.82;52.42;;;;;;;-0.70;100.00;160392.97;5030912;28;20476;-61
2022/12/04 03:43:47;;;;;;;96.13;53.63;;;;;;;-0.71;100.00;160388.97;5032212;28;20057;-61
2022/12/04 03:46:28;;;;;;;97.07;54.35;;;;;;;-0.89;100.00;160342.09;5031078;28;20412;-61
2022/12/04 03:49:04;;;;;;;86.30;54.38;;;;;;;-0.75;100.00;160379.59;5032092;28;20098;-61
2022/12/04 03:51:37;;;;;;;93.18;55.95;;;;;;;-0.75;100.00;160379.59;5050248;28;20051;-61
2022/12/04 03:54:15;;;;;;;96.97;54.08;;;;;;;-0.74;100.00;160382.28;5051179;28;20539;-61
2022/12/04 03:56:46;;;;;;;94.30;57.30;;;;;;;-0.74;100.00;160380.91;5050505;28;20041;-61
2022/12/04 03:59:17;;;;;;;90.57;57.97;;;;;;;-0.71;100.00;160390.28;5051447;28;20024;-61
2022/12/04 04:01:47;;;;;;;100.55;57.83;;;;;;;-0.71;100.00;160390.28;5047203;28;20056;-61
2022/12/04 04:04:18;;;;;;;93.65;55.10;;;;;;;-0.71;100.00;160390.28;5032086;28;20033;-61
2022/12/04 04:06:48;;;;;;;91.50;49.20;;;;;;;-0.73;100.00;160384.94;5030741;28;20068;-61
2022/12/04 04:09:18;;;;;;;95.80;55.75;;;;;;;-0.71;100.00;160390.28;5050201;28;20074;-61
2022/12/04 04:11:48;;;;;;;96.05;55.75;;;;;;;-0.74;100.00;160382.28;5047420;28;20080;-61
2022/12/04 04:25:40;;;;;;;94.15;52.78;;;;;;;-0.77;100.00;160374.22;5031491;28;20032;-62
2022/12/04 04:28:32;;;;;;;95.78;55.40;;;;;;;-0.74;100.00;160382.28;5030084;28;20073;-62
2022/12/04 04:31:06;;;;;;;95.65;52.67;;;;;;;-0.70;100.00;160392.97;5029954;28;20017;-62
2022/12/04 04:33:37;;;;;;;97.25;58.88;;;;;;;-0.70;100.00;160392.97;5031726;28;20017;-62
2022/12/04 04:36:17;;;;;;;96.10;54.05;;;;;;;-0.68;100.00;160397.00;5029938;28;20052;-62
2022/12/04 04:38:46;;;;;;;86.32;49.47;;;;;;;-0.68;100.00;160397.00;5031157;28;20043;-62
2022/12/04 04:41:25;;;;;;;88.07;55.10;;;;;;;-0.67;100.00;160399.69;5029768;28;20124;-62
2022/12/04 04:44:07;;;;;;;87.68;52.65;;;;;;;-0.65;100.00;160406.38;5030981;28;20088;-62
2022/12/04 04:46:38;;;;;;;92.93;53.63;;;;;;;-0.68;100.00;160398.34;5029665;28;20087;-62
2022/12/04 04:49:08;;;;;;;88.82;51.30;;;;;;;-0.69;100.00;160394.31;5037799;28;20517;-62
2022/12/04 04:51:34;;;;;;;84.82;47.58;;;;;;;-0.65;100.00;160406.38;5030652;28;20549;-62
2022/12/04 04:54:03;;;;;;;83.75;43.63;;;;;;;-0.61;100.00;160414.41;5030631;28;20029;-62
2022/12/04 04:56:29;;;;;;;99.85;48.90;;;;;;;-0.62;100.00;160413.06;5029598;28;20041;-62
2022/12/04 04:58:55;;;;;;;86.68;52.60;;;;;;;-0.59;100.00;160419.78;5050282;28;20051;-62
2022/12/04 05:01:25;;;;;;;89.47;51.67;;;;;;;-0.62;100.00;160411.72;5048554;28;20491;-62
2022/12/04 05:03:50;;;;;;;84.03;49.72;;;;;;;-0.58;100.00;160422.47;5036883;28;20026;-62
2022/12/04 05:06:16;;;;;;;84.35;48.90;;;;;;;-0.55;100.00;160430.47;5029551;28;20048;-62
2022/12/04 05:08:41;;;;;;;96.93;52.53;;;;;;;-0.58;100.00;160422.47;5039076;28;20102;-64
2022/12/04 05:11:11;;;;;;;113.38;57.33;;;;;;;-0.59;100.00;160419.78;5034091;28;20037;-64
2022/12/04 05:13:37;;;;;;;94.78;52.53;;;;;;;-0.59;100.00;160419.78;5044692;28;20438;-64
2022/12/04 05:16:09;;;;;;;91.63;51.60;;;;;;;-0.58;100.00;160423.78;5049008;28;20037;-64
2022/12/04 05:18:34;;;;;;;87.70;51.00;;;;;;;-0.57;100.00;160425.13;5050792;28;20483;-64
2022/12/04 05:21:08;;;;;;;90.25;53.15;;;;;;;-0.58;100.00;160423.78;5031840;28;20049;-63
2022/12/04 05:23:33;;;;;;;94.18;53.95;;;;;;;-0.59;100.00;160419.78;5050372;28;20029;-63
2022/12/04 05:26:01;;;;;;;86.05;52.40;;;;;;;-0.55;100.00;160430.47;5049006;28;20024;-63
2022/12/04 05:28:26;;;;;;;94.65;53.00;;;;;;;-0.59;100.00;160419.78;5050521;28;20033;-63
2022/12/04 05:30:59;;;;;;;89.07;53.55;;;;;;;-0.59;100.00;160421.09;5036451;28;20018;-63
2022/12/04 05:33:24;;;;;;;103.13;53.85;;;;;;;-0.59;100.00;160419.78;5030813;28;20105;-63
2022/12/04 05:35:57;;;;;;;81.68;47.13;;;;;;;-0.56;100.00;160427.81;5029401;28;20021;-63
2022/12/04 05:38:22;;;;;;;92.18;46.85;;;;;;;-0.52;100.00;160438.53;5030368;28;20108;-63
2022/12/04 05:40:47;;;;;;;75.43;46.42;;;;;;;-0.51;100.00;160441.22;5028879;28;20397;-63
2022/12/04 05:43:13;;;;;;;90.10;51.75;;;;;;;-0.52;100.00;160439.84;5030920;28;20072;-63
2022/12/04 05:45:38;;;;;;;81.63;48.45;;;;;;;-0.51;100.00;160441.22;5030035;28;20049;-63
2022/12/04 05:48:04;;;;;;;97.32;52.38;;;;;;;-0.54;100.00;160434.50;5028853;28;20050;-63
2022/12/04 05:50:29;;;;;;;99.22;54.20;;;;;;;-0.57;100.00;160426.47;5030565;28;20388;-63
2022/12/04 05:52:54;;;;;;;89.97;55.53;;;;;;;-0.52;100.00;160438.53;5028673;28;20037;-63
2022/12/04 05:55:20;;;;;;;96.47;51.63;;;;;;;-0.55;100.00;160431.81;5030606;28;20028;-63
2022/12/04 05:57:45;;;;;;;85.85;50.40;;;;;;;-0.54;100.00;160433.16;5034447;28;20044;-63
2022/12/04 06:00:11;;;;;;;93.00;49.95;;;;;;;-0.53;100.00;160435.84;5049278;28;20025;-62
2022/12/04 06:02:36;;;;;;;94.35;50.17;;;;;;;-0.56;100.00;160429.16;5048937;28;20051;-62
2022/12/04 06:05:02;;;;;;;93.60;53.28;;;;;;;-0.63;100.00;160409.06;5049758;28;20025;-62
2022/12/04 06:07:27;;;;;;;93.90;54.63;;;;;;;-0.55;100.00;160430.47;5047279;28;20041;-62
2022/12/04 06:09:54;;;;;;;94.35;55.92;;;;;;;-0.51;100.00;160441.22;5050151;28;20048;-62
2022/12/04 06:12:19;;;;;;;86.78;53.63;;;;;;;-0.51;100.00;160441.22;5032274;28;20049;-62
2022/12/04 06:14:44;;;;;;;78.88;47.58;;;;;;;-0.51;100.00;160441.22;5030299;28;20025;-62
2022/12/04 06:17:10;;;;;;;100.00;52.03;;;;;;;-0.51;100.00;160442.53;5028539;28;20496;-62
2022/12/04 06:19:35;;;;;;;91.13;56.20;;;;;;;-0.52;100.00;160438.53;5030483;28;20021;-62
2022/12/04 06:22:00;;;;;;;88.00;53.13;;;;;;;-0.56;100.00;160427.81;5028282;28;20057;-62
2022/12/04 06:24:26;;;;;;;90.45;51.90;;;;;;;-0.57;100.00;160425.13;5030124;28;20017;-62
2022/12/04 06:26:57;;;;;;;97.57;51.28;;;;;;;-0.60;100.00;160417.09;5028512;28;20041;-62
2022/12/04 06:29:23;;;;;;;89.80;54.83;;;;;;;-0.60;100.00;160417.09;5024537;28;20029;-62
2022/12/04 06:31:48;;;;;;;88.38;52.33;;;;;;;-0.58;100.00;160422.47;5030049;28;20037;-62
2022/12/04 06:34:14;;;;;;;95.68;54.17;;;;;;;-0.56;100.00;160427.81;5049326;28;20021;-62
2022/12/04 06:36:40;;;;;;;78.93;45.83;;;;;;;-0.55;100.00;160430.47;5049822;28;20037;-62
2022/12/04 06:39:05;;;;;;;95.82;51.45;;;;;;;-0.59;100.00;160421.09;5039992;28;20029;-62
2022/12/04 06:41:31;;;;;;;94.93;52.00;;;;;;;-0.59;100.00;160421.09;5032125;28;20037;-61
2022/12/04 06:43:57;;;;;;;91.95;50.38;;;;;;;-0.63;100.00;160409.06;5033193;28;20041;-61
2022/12/04 06:46:26;;;;;;;96.00;56.03;;;;;;;-0.61;100.00;160414.41;5032077;28;20060;-62
2022/12/04 06:48:53;;;;;;;97.55;52.65;;;;;;;-0.57;100.00;160426.47;5033169;28;20037;-62
2022/12/04 06:51:24;;;;;;;88.78;51.85;;;;;;;-0.57;100.00;160425.13;5051924;28;20040;-61
2022/12/04 06:53:51;;;;;;;91.82;55.92;;;;;;;-0.59;100.00;160421.09;5052762;28;20048;-61
2022/12/04 06:56:21;;;;;;;89.13;53.03;;;;;;;-0.56;100.00;160429.16;5046026;28;20049;-61
2022/12/04 06:58:47;;;;;;;90.18;54.67;;;;;;;-0.55;100.00;160430.47;5033262;28;20038;-61
2022/12/04 07:01:15;;;;;;;94.40;51.17;;;;;;;-0.54;100.00;160433.16;5050179;28;20040;-61
2022/12/04 07:03:41;;;;;;;95.15;52.38;;;;;;;-0.56;100.00;160427.81;5052482;28;20040;-66
2022/12/04 07:06:15;;;;;;;84.15;49.30;;;;;;;-0.52;100.00;160438.53;5049878;28;20041;-63
2022/12/04 07:08:42;;;;;;;90.20;50.05;;;;;;;-0.51;100.00;160441.22;5042811;28;20060;-63
2022/12/04 07:11:08;;;;;;;84.15;46.90;;;;;;;-0.49;100.00;160446.56;5037494;28;20076;-63
2022/12/04 07:13:33;;;;;;;77.40;46.10;;;;;;;-0.49;100.00;160446.56;5063398;28;20033;-63
2022/12/04 07:16:04;;;;;;;81.95;49.63;;;;;;;-0.53;100.00;160435.84;5031194;28;20112;-63
2022/12/04 07:18:30;;;;;;;78.32;45.85;;;;;;;-0.49;100.00;160446.56;5034701;28;20029;-63
2022/12/04 07:20:56;;;;;;;86.50;52.03;;;;;;;-0.49;100.00;160447.91;5048031;28;20037;-63
2022/12/04 07:23:21;;;;;;;85.40;44.90;;;;;;;-0.47;100.00;160451.91;5037287;28;20361;-63
2022/12/04 07:25:46;;;;;;;77.88;46.95;;;;;;;-0.45;100.00;160457.28;5030740;28;20075;-63
2022/12/04 07:28:12;;;;;;;75.78;41.55;;;;;;;-0.46;100.00;160453.25;5032265;28;20022;-63
2022/12/04 07:30:37;;;;;;;74.88;46.65;;;;;;;-0.43;100.00;160462.66;5036395;28;20535;-61
2022/12/04 07:33:03;;;;;;;86.75;46.72;;;;;;;-0.41;100.00;160467.97;5031281;28;20064;-61
2022/12/04 07:35:28;;;;;;;71.25;45.95;;;;;;;-0.39;100.00;160473.34;5050147;28;20627;-60
2022/12/04 07:37:54;;;;;;;73.50;41.75;;;;;;;-0.43;100.00;160462.66;5032344;28;20040;-61
2022/12/04 07:40:19;;;;;;;69.78;41.50;;;;;;;-0.41;100.00;160466.66;5032312;28;20030;-60
2022/12/04 07:42:45;;;;;;;69.53;40.55;;;;;;;-0.44;100.00;160459.97;5037240;28;20395;-60
2022/12/04 07:45:10;;;;;;;74.25;41.63;;;;;;;-0.47;100.00;160451.91;5047383;28;20091;-60
2022/12/04 07:47:35;;;;;;;75.97;41.30;;;;;;;-0.45;100.00;160457.28;5030357;28;20045;-60
2022/12/04 07:50:02;;;;;;;67.78;41.83;;;;;;;-0.47;100.00;160450.59;5040284;28;20029;-60
2022/12/04 07:52:27;;;;;;;70.20;40.47;;;;;;;-0.49;100.00;160447.91;5048828;28;20128;-60
2022/12/04 07:54:53;;;;;;;62.13;36.13;;;;;;;-0.41;100.00;160466.66;5050953;28;20028;-61
2022/12/04 07:57:18;;;;;;;56.55;37.03;;;;;;;-0.43;100.00;160462.66;5050226;28;20051;-60
2022/12/04 07:59:43;;;;;;;72.15;43.72;;;;;;;-0.45;100.00;160457.28;5042026;28;20030;-60
2022/12/04 08:02:11;;;;;;;66.75;36.90;;;;;;;-0.44;100.00;160458.59;5029920;28;20045;-60
2022/12/04 08:04:37;;;;;;;66.70;35.90;;;;;;;-0.47;100.00;160451.91;5031568;28;20392;-60
2022/12/04 08:07:02;;;;;;;64.55;36.47;;;;;;;-0.43;100.00;160462.66;5024955;28;20038;-61
2022/12/04 08:09:27;;;;;;;55.53;34.28;;;;;;;-0.40;100.00;160470.66;5036986;28;20545;-61
2022/12/04 08:11:52;;;;;;;52.20;33.38;;;;;;;-0.38;100.00;160476.03;5049536;28;20033;-61
2022/12/04 08:14:18;;;;;;;52.92;33.70;;;;;;;-0.40;100.00;160470.66;5034674;28;20044;-61
2022/12/04 08:16:43;;;;;;;48.15;31.95;;;;;;;-0.42;100.00;160463.97;5029323;28;20033;-60
2022/12/04 08:19:09;;;;;;;47.17;31.55;;;;;;;-0.34;100.00;160486.78;5029505;28;20036;-60
2022/12/04 08:21:34;;;;;;;55.97;33.63;;;;;;;-0.35;100.00;160482.72;5038412;28;20036;-60
2022/12/04 08:24:00;;;;;;;46.47;29.17;;;;;;;-0.33;100.00;160488.09;5050892;28;20033;-60
2022/12/04 08:26:27;;;;;;;53.15;29.38;;;;;;;-0.32;100.00;160490.78;5049775;28;20036;-60
2022/12/04 08:28:53;;;;;;;45.03;30.63;;;;;;;-0.30;100.00;160494.78;5038282;28;20447;-61
2022/12/04 08:31:21;;;;;;;49.30;32.17;;;;;;;-0.32;100.00;160492.09;5028820;28;20056;-60
2022/12/04 08:33:48;;;;;;;51.38;32.97;;;;;;;-0.32;100.00;160492.09;5035463;28;20109;-60
2022/12/04 08:36:16;;;;;;;47.42;30.45;;;;;;;-0.29;100.00;160497.47;5046471;28;20037;-60
2022/12/04 08:38:41;;;;;;;43.65;26.33;;;;;;;-0.20;100.00;160521.59;5051171;28;20448;-60
2022/12/04 08:41:10;;;;;;;50.35;28.73;;;;;;;-0.22;100.00;160516.22;5037500;28;20116;-60
2022/12/04 08:43:36;;;;;;;46.35;26.73;;;;;;;-0.20;100.00;160522.91;5049307;28;20028;-60
2022/12/04 08:46:05;;;;;;;38.70;25.08;;;;;;;-0.18;100.00;160526.91;5036844;28;20025;-60
2022/12/04 08:48:32;;;;;;;43.58;24.58;;;;;;;-0.15;100.00;160533.66;5047187;28;20098;-61
2022/12/04 08:50:57;;;;;;;46.40;27.38;;;;;;;-0.20;100.00;160522.91;5047851;28;20025;-60
2022/12/04 08:53:23;;;;;;;37.22;23.73;;;;;;;-0.22;100.00;160516.22;5038776;28;20033;-61
2022/12/04 08:55:50;;;;;;;35.70;23.35;;;;;;;-0.20;100.00;160521.59;5028862;28;20029;-60
2022/12/04 08:58:15;;;;;;;36.25;22.52;;;;;;;-0.09;100.00;160549.72;5030736;28;20033;-61
2022/12/04 09:00:41;;;;;;;38.08;24.90;;;;;;;-0.05;100.00;160560.44;5030549;28;20033;-61
2022/12/04 09:03:06;;;;;;;41.03;22.70;;;;;;;-0.06;100.00;160559.13;5029122;28;20120;-61
2022/12/04 09:05:31;;;;;;;41.65;23.67;;;;;;;-0.03;100.00;160567.13;5043515;28;20048;-61
2022/12/04 09:07:57;;;;;;;38.97;23.55;;;;;;;0.05;100.00;160585.88;5033491;28;20504;-61
2022/12/04 09:10:22;;;;;;;36.42;22.40;;;;;;;0.07;100.00;160591.25;5043289;28;20052;-60
2022/12/04 09:12:48;;;;;;;35.78;21.92;;;;;;;0.02;100.00;160577.88;5030712;28;20056;-61
2022/12/04 09:15:13;;;;;;;40.10;25.08;;;;;;;0.07;100.00;160592.63;5039640;28;20488;-61
2022/12/04 09:17:38;;;;;;;33.20;23.17;;;;;;;0.04;100.00;160583.25;5042340;28;20492;-61
2022/12/04 09:20:06;;;;;;;41.10;22.73;;;;;;;0.04;100.00;160584.56;5035046;28;20052;-61
2022/12/04 09:22:34;;;;;;;39.13;23.92;;;;;;;0.07;100.00;160591.25;5029188;28;20137;-60
2022/12/04 09:24:59;;;;;;;40.97;23.85;;;;;;;0.08;100.00;160595.25;5029941;28;20033;-61
2022/12/04 09:27:25;;;;;;;35.42;20.88;;;;;;;0.15;100.00;160612.72;5028818;28;20133;-61
2022/12/04 09:29:51;;;;;;;28.70;20.48;;;;;;;0.15;100.00;160612.72;5034926;28;20021;-61
2022/12/04 09:32:16;;;;;;;33.33;21.58;;;;;;;0.20;100.00;160626.09;5028865;28;20520;-61
2022/12/04 09:34:41;;;;;;;34.65;21.00;;;;;;;0.18;100.00;160620.78;5036395;28;20055;-61
2022/12/04 09:37:06;;;;;;;39.63;22.85;;;;;;;0.23;100.00;160632.78;5047659;28;20045;-61
2022/12/04 09:39:32;;;;;;;29.20;19.15;;;;;;;0.18;100.00;160620.78;5050233;28;20029;-60
2022/12/04 09:42:08;;;;;;;37.10;21.83;;;;;;;0.19;100.00;160623.41;5036236;28;20095;-61
2022/12/04 09:44:39;;;;;;;31.75;20.05;;;;;;;0.23;100.00;160634.16;5030308;28;20129;-61
2022/12/04 09:47:14;;;;;;;32.00;20.30;;;;;;;0.25;100.00;160639.53;5028487;28;20587;-61
2022/12/04 09:49:45;;;;;;;31.60;20.30;;;;;;;0.31;100.00;160655.59;5035546;28;20038;-61
2022/12/04 09:52:34;;;;;;;39.03;23.25;;;;;;;0.35;100.00;160663.63;5048497;28;20033;-61
2022/12/04 09:55:02;;;;;;;33.35;21.25;;;;;;;0.34;100.00;160660.94;5049725;28;20064;-61
2022/12/04 09:57:33;;;;;;;31.83;21.25;;;;;;;0.37;100.00;160670.38;5028335;28;20404;-61
2022/12/04 09:59:58;;;;;;;30.27;20.55;;;;;;;0.36;100.00;160667.69;5031084;28;20491;-61
2022/12/04 10:02:35;;;;;;;36.95;23.88;;;;;;;0.42;100.00;160682.38;5032607;28;20044;-61
2022/12/04 10:05:01;;;;;;;25.45;18.25;;;;;;;0.46;100.00;160693.13;5028110;28;20091;-61
2022/12/04 10:07:47;;;;;;;30.40;21.27;;;;;;;0.48;100.00;160698.50;5038388;28;20052;-61
2022/12/04 10:10:25;;;;;;;27.02;20.63;;;;;;;0.52;100.00;160709.22;5052304;28;20518;-61
2022/12/04 10:13:15;;;;;;;32.45;20.10;;;;;;;0.49;100.00;160699.84;5044715;28;20396;-61
2022/12/04 10:15:51;;;;;;;32.35;19.98;;;;;;;0.50;100.00;160703.84;5053658;28;20513;-61
2022/12/04 10:18:25;;;;;;;31.85;22.77;;;;;;;0.50;100.00;160702.53;5049587;28;20536;-61
2022/12/04 10:21:04;;;;;;;30.25;21.40;;;;;;;0.46;100.00;160693.13;5034379;28;20535;-60
2022/12/04 10:23:54;;;;;;;29.10;18.92;;;;;;;0.53;100.00;160711.91;5034459;28;20021;-61
2022/12/04 10:26:26;;;;;;;33.58;23.52;;;;;;;0.51;100.00;160706.53;5030740;28;20052;-61
2022/12/04 10:28:57;;;;;;;32.40;19.55;;;;;;;0.52;100.00;160709.22;5033368;28;20087;-61
2022/12/04 10:31:24;;;;;;;30.08;20.92;;;;;;;0.54;100.00;160714.59;5031988;28;20033;-61
2022/12/04 10:33:51;;;;;;;33.50;20.38;;;;;;;0.51;100.00;160706.53;5032056;28;20427;-62
2022/12/04 10:36:20;;;;;;;31.10;21.23;;;;;;;0.54;100.00;160714.59;5031654;28;20044;-61
2022/12/04 10:38:45;;;;;;;31.15;19.85;;;;;;;0.62;100.00;160734.69;5033291;28;20037;-61
2022/12/04 10:41:37;;;;;;;32.72;21.60;;;;;;;0.58;100.00;160723.97;5043152;28;20102;-61
2022/12/04 10:44:02;;;;;;;30.35;21.65;;;;;;;0.60;100.00;160730.66;5052687;28;20081;-61
2022/12/04 10:46:33;;;;;;;28.25;19.10;;;;;;;0.64;100.00;160740.06;5051233;28;20061;-61
2022/12/04 10:49:01;;;;;;;33.90;21.35;;;;;;;0.65;100.00;160741.38;5034646;28;20037;-61
2022/12/04 10:51:34;;;;;;;24.30;18.02;;;;;;;0.60;100.00;160729.31;5031846;28;20045;-61
2022/12/04 10:53:59;;;;;;;26.88;19.92;;;;;;;0.66;100.00;160744.06;5034311;28;20057;-61
2022/12/04 10:56:25;;;;;;;35.03;19.10;;;;;;;0.71;100.00;160757.50;5045001;28;20068;-61
2022/12/04 10:59:14;;;;;;;31.42;21.33;;;;;;;0.73;100.00;160762.84;5048839;28;20032;-61
2022/12/04 11:01:40;;;;;;;37.35;21.40;;;;;;;0.71;100.00;160757.50;5051330;28;20041;-61
2022/12/04 11:04:09;;;;;;;30.17;21.33;;;;;;;0.72;100.00;160760.13;5047556;28;20546;-61
2022/12/04 11:06:34;;;;;;;30.48;22.23;;;;;;;0.74;100.00;160765.53;5029368;28;20778;-61
2022/12/04 11:09:01;;;;;;;31.67;22.88;;;;;;;0.75;100.00;160768.22;5046066;28;20025;-61
2022/12/04 11:11:29;;;;;;;32.88;23.17;;;;;;;0.76;100.00;160770.91;5038928;28;20097;-61
2022/12/04 11:14:12;;;;;;;37.15;23.63;;;;;;;0.78;100.00;160776.28;5035175;28;20546;-61
2022/12/04 11:16:43;;;;;;;33.25;21.90;;;;;;;0.72;100.00;160760.13;5039900;28;20520;-62
2022/12/04 11:19:24;;;;;;;35.15;26.25;;;;;;;0.75;100.00;160768.22;5039894;28;20075;-62
2022/12/04 11:21:53;;;;;;;32.63;22.75;;;;;;;0.74;100.00;160765.53;5032200;28;20041;-61
2022/12/04 11:24:28;;;;;;;35.33;20.77;;;;;;;0.78;100.00;160777.59;5033987;28;20033;-61